createdAt,value
2023-11-21T00:00:44.776Z,96323.69
2023-11-21T00:03:14.669Z,96324.09
2023-11-21T00:05:41.489Z,96312.56
2023-11-21T00:08:11.274Z,96312.13
2023-11-21T00:10:38.110Z,96310.16
2023-11-21T00:13:04.879Z,96308.97
2023-11-21T00:15:31.701Z,96298.66
2023-11-21T00:17:58.496Z,96290.56
2023-11-21T00:20:28.332Z,96284.72
2023-11-21T00:22:55.123Z,96286.75
2023-11-21T00:25:21.988Z,96287.78
2023-11-21T00:27:48.789Z,96280.31
2023-11-21T00:30:18.583Z,96279.25
2023-11-21T00:32:45.413Z,96293.34
2023-11-21T00:35:15.216Z,96291.72
2023-11-21T00:37:42.069Z,96299.78
2023-11-21T00:40:11.914Z,96286.78
2023-11-21T00:42:38.763Z,96294.25
2023-11-21T00:45:05.564Z,96285.56
2023-11-21T00:47:32.449Z,96276.75
2023-11-21T00:49:59.297Z,96288.09
2023-11-21T00:52:26.155Z,96281.19
2023-11-21T00:54:52.929Z,96282.00
2023-11-21T00:57:19.712Z,96277.03
2023-11-21T00:59:46.519Z,96276.81
2023-11-21T01:02:13.420Z,96275.81
2023-11-21T01:04:40.264Z,96288.56
2023-11-21T01:07:07.057Z,96286.53
2023-11-21T01:09:33.844Z,96281.91
2023-11-21T01:12:03.695Z,96285.13
2023-11-21T01:14:30.466Z,96286.97
2023-11-21T01:16:57.303Z,96286.97
2023-11-21T01:19:24.174Z,96280.09
2023-11-21T01:21:50.962Z,96278.91
2023-11-21T01:24:20.784Z,96271.22
2023-11-21T01:26:47.593Z,96272.81
2023-11-21T01:29:14.391Z,96263.75
2023-11-21T01:31:44.428Z,96262.75
2023-11-21T01:34:14.315Z,96264.34
2023-11-21T01:36:41.079Z,96258.91
2023-11-21T01:39:10.919Z,96262.75
2023-11-21T01:41:37.701Z,96267.19
2023-11-21T01:44:04.516Z,96271.84
2023-11-21T01:46:31.273Z,96271.81
2023-11-21T01:49:01.133Z,96272.00
2023-11-21T01:51:27.891Z,96272.81
2023-11-21T01:53:57.686Z,96264.34
2023-11-21T01:56:27.454Z,96269.22
2023-11-21T01:58:57.282Z,96263.53
2023-11-21T02:01:24.061Z,96264.38
2023-11-21T02:03:51.013Z,96261.72
2023-11-21T02:06:17.775Z,96257.28
2023-11-21T02:08:47.599Z,96247.78
2023-11-21T02:11:14.374Z,96253.03
2023-11-21T02:13:44.472Z,96256.25
2023-11-21T02:16:11.478Z,96252.03
2023-11-21T02:18:38.374Z,96246.97
2023-11-21T02:21:05.182Z,96246.16
2023-11-21T02:23:31.970Z,96250.03
2023-11-21T02:25:58.766Z,96236.91
2023-11-21T02:28:28.602Z,96242.75
2023-11-21T02:30:55.422Z,96239.72
2023-11-21T02:33:25.330Z,96240.13
2023-11-21T02:35:52.092Z,96241.91
2023-11-21T02:38:18.927Z,96239.31
2023-11-21T02:40:45.892Z,96243.75
2023-11-21T02:43:12.791Z,96242.75
2023-11-21T02:45:42.578Z,96235.25
2023-11-21T02:48:09.478Z,96233.44
2023-11-21T02:50:36.236Z,96227.78
2023-11-21T02:53:02.996Z,96226.16
2023-11-21T02:55:29.821Z,96220.69
2023-11-21T02:57:59.728Z,96219.09
2023-11-21T03:00:26.607Z,96216.69
2023-11-21T03:02:53.441Z,96214.28
2023-11-21T03:05:23.266Z,96219.72
2023-11-21T03:07:50.140Z,96216.69
2023-11-21T03:10:21.143Z,96213.25
2023-11-21T03:12:50.927Z,96215.88
2023-11-21T03:15:17.743Z,96221.34
2023-11-21T03:17:47.649Z,96213.06
2023-11-21T03:20:17.472Z,96215.50
2023-11-21T03:22:44.404Z,96210.03
2023-11-21T03:25:14.427Z,96206.78
2023-11-21T03:27:41.286Z,96209.41
2023-11-21T03:30:08.069Z,96200.34
2023-11-21T03:32:34.828Z,96199.94
2023-11-21T03:35:01.693Z,96206.19
2023-11-21T03:37:28.747Z,96197.72
2023-11-21T03:39:55.978Z,96200.53
2023-11-21T03:42:22.753Z,96207.81
2023-11-21T03:44:52.573Z,96209.03
2023-11-21T03:47:19.343Z,96204.19
2023-11-21T03:49:46.214Z,96209.44
2023-11-21T03:52:16.151Z,96208.22
2023-11-21T03:54:42.979Z,96213.88
2023-11-21T03:57:09.738Z,96216.72
2023-11-21T03:59:36.564Z,96218.50
2023-11-21T04:02:03.413Z,96210.25
2023-11-21T04:04:33.303Z,96218.72
2023-11-21T04:07:03.233Z,96223.34
2023-11-21T04:09:30.029Z,96219.53
2023-11-21T04:11:56.799Z,96223.53
2023-11-21T04:14:23.584Z,96227.19
2023-11-21T04:16:50.403Z,96228.00
2023-11-21T04:19:17.269Z,96220.31
2023-11-21T04:21:44.079Z,96219.53
2023-11-21T04:24:10.879Z,96222.94
2023-11-21T04:26:37.650Z,96223.97
2023-11-21T04:29:04.429Z,96226.97
2023-11-21T04:31:31.275Z,96230.22
2023-11-21T04:33:58.043Z,96234.88
2023-11-21T04:36:24.860Z,96229.41
2023-11-21T04:38:54.683Z,96230.22
2023-11-21T04:41:24.467Z,96229.22
2023-11-21T04:43:54.351Z,96232.84
2023-11-21T04:46:21.318Z,96225.78
2023-11-21T04:48:48.160Z,96219.53
2023-11-21T04:51:14.988Z,96220.97
2023-11-21T04:53:44.789Z,96212.06
2023-11-21T04:56:14.582Z,96216.31
2023-11-21T04:58:41.428Z,96217.13
2023-11-21T05:01:08.790Z,96212.06
2023-11-21T05:03:35.810Z,96206.81
2023-11-21T05:06:02.727Z,96210.03
2023-11-21T05:08:29.568Z,96221.56
2023-11-21T05:10:59.401Z,96220.50
2023-11-21T05:13:26.220Z,96221.16
2023-11-21T05:15:53.074Z,96221.75
2023-11-21T05:18:19.918Z,96223.97
2023-11-21T05:20:49.752Z,96223.56
2023-11-21T05:23:19.565Z,96224.97
2023-11-21T05:25:46.378Z,96225.38
2023-11-21T05:28:16.208Z,96230.81
2023-11-21T05:30:43.043Z,96227.59
2023-11-21T05:33:09.925Z,96241.31
2023-11-21T05:35:36.751Z,96241.31
2023-11-21T05:38:03.559Z,96237.06
2023-11-21T05:40:30.369Z,96241.53
2023-11-21T05:43:00.284Z,96236.88
2023-11-21T05:45:27.094Z,96244.97
2023-11-21T05:47:53.917Z,96250.22
2023-11-21T05:50:20.728Z,96256.88
2023-11-21T05:52:47.438Z,96254.03
2023-11-21T05:55:14.450Z,96252.03
2023-11-21T05:57:41.292Z,96250.63
2023-11-21T06:00:07.888Z,96252.63
2023-11-21T06:02:34.525Z,96257.69
2023-11-21T06:05:01.236Z,96256.88
2023-11-21T06:07:27.943Z,96264.34
2023-11-21T06:09:54.551Z,96262.72
2023-11-21T06:12:21.186Z,96257.06
2023-11-21T06:14:47.798Z,96255.88
2023-11-21T06:17:14.522Z,96255.06
2023-11-21T06:19:41.212Z,96251.63
2023-11-21T06:22:07.851Z,96255.06
2023-11-21T06:24:34.476Z,96255.88
2023-11-21T06:27:01.129Z,96255.09
2023-11-21T06:29:27.768Z,96264.72
2023-11-21T06:31:54.541Z,96261.53
2023-11-21T06:34:21.199Z,96265.16
2023-11-21T06:36:47.847Z,96264.38
2023-11-21T06:39:14.442Z,96263.56
2023-11-21T06:41:41.100Z,96270.63
2023-11-21T06:44:07.854Z,96269.41
2023-11-21T06:46:34.647Z,96269.00
2023-11-21T06:49:01.332Z,96266.97
2023-11-21T06:51:28.115Z,96282.94
2023-11-21T06:53:54.889Z,96276.66
2023-11-21T06:56:21.713Z,96281.34
2023-11-21T06:58:48.635Z,96278.69
2023-11-21T07:01:15.442Z,96284.53
2023-11-21T07:03:42.401Z,96288.59
2023-11-21T07:06:09.247Z,96292.22
2023-11-21T07:08:39.120Z,96300.31
2023-11-21T07:11:07.238Z,96299.06
2023-11-21T07:13:34.079Z,96296.25
2023-11-21T07:16:00.966Z,96294.44
2023-11-21T07:18:28.901Z,96286.56
2023-11-21T07:20:55.688Z,96295.25
2023-11-21T07:23:22.542Z,96293.41
2023-11-21T07:25:49.380Z,96290.81
2023-11-21T07:28:16.227Z,96289.38
2023-11-21T07:30:43.016Z,96294.25
2023-11-21T07:33:12.879Z,96287.78
2023-11-21T07:35:39.754Z,96286.34
2023-11-21T07:38:06.636Z,96288.34
2023-11-21T07:40:33.558Z,96285.09
2023-11-21T07:43:00.468Z,96284.88
2023-11-21T07:45:32.537Z,96282.28
2023-11-21T07:48:02.479Z,96290.94
2023-11-21T07:50:29.256Z,96293.53
2023-11-21T07:52:56.131Z,96295.34
2023-11-21T07:55:22.970Z,96297.16
2023-11-21T07:57:49.756Z,96295.56
2023-11-21T08:00:16.612Z,96305.41
2023-11-21T08:02:44.077Z,96306.22
2023-11-21T08:05:21.665Z,96308.22
2023-11-21T08:07:55.073Z,96301.78
2023-11-21T08:10:23.174Z,96306.53
2023-11-21T08:12:53.057Z,96296.59
2023-11-21T08:15:19.912Z,96300.44
2023-11-21T08:17:49.897Z,96302.00
2023-11-21T08:20:16.826Z,96306.69
2023-11-21T08:22:46.756Z,96302.75
2023-11-21T08:25:16.622Z,96309.19
2023-11-21T08:27:46.428Z,96295.34
2023-11-21T08:30:13.275Z,96298.03
2023-11-21T08:32:40.139Z,96306.31
2023-11-21T08:35:10.121Z,96304.75
2023-11-21T08:37:37.049Z,96308.31
2023-11-21T08:40:03.873Z,96302.88
2023-11-21T08:42:30.640Z,96304.69
2023-11-21T08:44:57.449Z,96310.03
2023-11-21T08:47:27.281Z,96307.16
2023-11-21T08:52:21.713Z,96316.09
2023-11-21T08:54:51.640Z,96306.19
2023-11-21T08:57:18.467Z,96311.16
2023-11-21T08:59:45.104Z,96310.09
2023-11-21T09:02:11.809Z,96307.63
2023-11-21T09:04:39.945Z,96302.13
2023-11-21T09:07:06.799Z,96304.31
2023-11-21T09:09:33.438Z,96300.69
2023-11-21T09:12:00.072Z,96302.41
2023-11-21T09:14:26.757Z,96300.72
2023-11-21T09:16:53.482Z,96307.50
2023-11-21T09:19:20.168Z,96303.16
2023-11-21T09:21:46.757Z,96300.44
2023-11-21T09:24:13.357Z,96307.94
2023-11-21T09:26:39.977Z,96304.28
2023-11-21T09:29:06.706Z,96316.91
2023-11-21T09:31:33.391Z,96316.09
2023-11-21T09:34:00.010Z,96310.22
2023-11-21T09:36:26.619Z,96322.16
2023-11-21T09:38:53.243Z,96316.44
2023-11-21T09:41:19.885Z,96321.50
2023-11-21T09:43:46.464Z,96322.13
2023-11-21T09:46:13.109Z,96333.13
2023-11-21T09:48:39.744Z,96338.63
2023-11-21T09:51:06.378Z,96340.44
2023-11-21T09:53:32.967Z,96332.84
2023-11-21T09:55:59.616Z,96326.69
2023-11-21T09:58:29.583Z,96328.03
2023-11-21T10:00:56.386Z,96324.00
2023-11-21T10:03:23.236Z,96327.13
2023-11-21T10:05:50.068Z,96326.00
2023-11-21T10:08:19.839Z,96324.63
2023-11-21T10:10:46.679Z,96313.00
2023-11-21T10:13:16.519Z,96306.75
2023-11-21T10:15:43.293Z,96304.25
2023-11-21T10:18:13.130Z,96297.28
2023-11-21T10:20:42.974Z,96305.38
2023-11-21T10:23:09.778Z,96307.44
2023-11-21T10:25:36.658Z,96301.47
2023-11-21T10:28:03.463Z,96301.34
2023-11-21T10:30:30.300Z,96299.19
2023-11-21T10:32:57.145Z,96303.47
2023-11-21T10:35:27.060Z,96309.16
2023-11-21T10:37:56.909Z,96305.47
2023-11-21T10:40:23.724Z,96299.16
2023-11-21T10:42:50.496Z,96301.97
2023-11-21T10:45:17.292Z,96298.03
2023-11-21T10:47:44.135Z,96290.09
2023-11-21T10:50:10.986Z,96288.72
2023-11-21T10:52:37.789Z,96289.91
2023-11-21T10:55:04.530Z,96284.56
2023-11-21T10:57:31.361Z,96289.28
2023-11-21T10:59:58.263Z,96291.94
2023-11-21T11:02:28.271Z,96288.84
2023-11-21T11:04:58.200Z,96298.13
2023-11-21T11:07:25.013Z,96292.13
2023-11-21T11:09:51.806Z,96297.69
2023-11-21T11:12:18.634Z,96298.25
2023-11-21T11:14:45.495Z,96295.81
2023-11-21T11:17:12.411Z,96298.66
2023-11-21T11:19:39.308Z,96300.25
2023-11-21T11:22:06.149Z,96298.88
2023-11-21T11:24:32.910Z,96297.50
2023-11-21T11:26:59.681Z,96286.50
2023-11-21T11:29:26.585Z,96287.91
2023-11-21T11:31:53.490Z,96292.50
2023-11-21T11:34:20.266Z,96298.56
2023-11-21T11:36:47.111Z,96297.69
2023-11-21T11:39:16.943Z,96295.59
2023-11-21T11:41:43.764Z,96301.00
2023-11-21T11:44:13.610Z,96300.88
2023-11-21T11:46:40.553Z,96301.25
2023-11-21T11:49:10.363Z,96296.63
2023-11-21T11:51:37.164Z,96291.94
2023-11-21T11:54:03.971Z,96293.13
2023-11-21T11:56:30.736Z,96284.94
2023-11-21T11:58:57.645Z,96297.28
2023-11-21T12:01:24.510Z,96289.63
2023-11-21T12:03:54.490Z,96292.44
2023-11-21T12:06:24.376Z,96292.63
2023-11-21T12:08:51.205Z,96285.19
2023-11-21T12:11:17.971Z,96287.41
2023-11-21T12:13:46.823Z,96285.69
2023-11-21T12:16:13.589Z,96292.22
2023-11-21T12:18:40.365Z,96284.59
2023-11-21T12:21:07.149Z,96276.59
2023-11-21T12:23:33.940Z,96283.28
2023-11-21T12:26:00.759Z,96276.03
2023-11-21T12:28:30.614Z,96278.50
2023-11-21T12:31:07.831Z,96281.03
2023-11-21T12:33:41.477Z,96279.53
2023-11-21T12:36:08.211Z,96282.75
2023-11-21T12:38:35.012Z,96289.13
2023-11-21T12:41:01.823Z,96282.94
2023-11-21T12:43:32.556Z,96280.94
2023-11-21T12:45:59.888Z,96277.00
2023-11-21T12:48:26.734Z,96278.34
2023-11-21T12:50:53.537Z,96286.09
2023-11-21T12:53:20.336Z,96288.84
2023-11-21T12:55:47.166Z,96298.25
2023-11-21T12:58:14.080Z,96292.03
2023-11-21T13:00:41.079Z,96291.09
2023-11-21T13:03:07.958Z,96295.53
2023-11-21T13:05:34.790Z,96304.94
2023-11-21T13:08:01.582Z,96303.50
2023-11-21T13:10:28.402Z,96314.53
2023-11-21T13:12:55.227Z,96312.25
2023-11-21T13:15:22.065Z,96326.28
2023-11-21T13:17:48.859Z,96324.81
2023-11-21T13:20:15.642Z,96329.16
2023-11-21T13:22:42.456Z,96342.00
2023-11-21T13:25:09.238Z,96337.22
2023-11-21T13:27:39.065Z,96335.69
2023-11-21T13:30:08.865Z,96339.03
2023-11-21T13:32:35.668Z,96336.41
2023-11-21T13:35:02.477Z,96344.03
2023-11-21T13:37:29.250Z,96327.56
2023-11-21T13:39:56.048Z,96333.41
2023-11-21T13:42:22.936Z,96332.00
2023-11-21T13:44:52.778Z,96332.25
2023-11-21T13:47:19.617Z,96330.28
2023-11-21T13:49:46.446Z,96332.03
2023-11-21T13:52:13.344Z,96335.38
2023-11-21T13:54:40.149Z,96330.34
2023-11-21T13:57:09.938Z,96327.47
2023-11-21T13:59:39.804Z,96333.28
2023-11-21T14:02:06.677Z,96334.31
2023-11-21T14:04:33.532Z,96332.56
2023-11-21T14:07:00.342Z,96338.78
2023-11-21T14:09:27.308Z,96339.84
2023-11-21T14:11:54.099Z,96340.72
2023-11-21T14:14:20.871Z,96338.00
2023-11-21T14:16:47.711Z,96334.28
2023-11-21T14:19:17.525Z,96341.00
2023-11-21T14:21:44.305Z,96346.63
2023-11-21T14:24:14.072Z,96343.19
2023-11-21T14:26:40.878Z,96338.66
2023-11-21T14:29:07.642Z,96342.13
2023-11-21T14:31:34.559Z,96347.41
2023-11-21T14:34:01.418Z,96351.19
2023-11-21T14:36:28.195Z,96352.00
2023-11-21T14:38:54.934Z,96357.84
2023-11-21T14:41:21.707Z,96367.94
2023-11-21T14:43:48.517Z,96369.75
2023-11-21T14:46:15.436Z,96365.75
2023-11-21T14:48:42.225Z,96366.81
2023-11-21T14:51:09.052Z,96370.09
2023-11-21T14:53:38.829Z,96372.41
2023-11-21T14:56:08.779Z,96379.78
2023-11-21T14:58:35.635Z,96376.09
2023-11-21T15:01:02.450Z,96383.25
2023-11-21T15:03:47.711Z,96379.34
2023-11-21T15:06:14.569Z,96381.72
2023-11-21T15:08:44.385Z,96388.53
2023-11-21T15:11:14.233Z,96393.06
2023-11-21T15:13:41.145Z,96394.06
2023-11-21T15:16:11.003Z,96393.91
2023-11-21T15:18:37.805Z,96397.81
2023-11-21T15:21:07.671Z,96398.03
2023-11-21T15:23:34.465Z,96392.59
2023-11-21T15:26:01.261Z,96394.22
2023-11-21T15:28:31.093Z,96393.63
2023-11-21T15:31:00.920Z,96398.78
2023-11-21T15:33:27.752Z,96407.06
2023-11-21T15:35:54.534Z,96410.00
2023-11-21T15:38:21.506Z,96414.31
2023-11-21T15:40:48.317Z,96425.88
2023-11-21T15:43:15.188Z,96427.09
2023-11-21T15:45:45.033Z,96418.53
2023-11-21T15:48:14.861Z,96430.91
2023-11-21T15:50:41.700Z,96430.66
2023-11-21T15:53:08.552Z,96426.97
2023-11-21T15:55:35.348Z,96430.69
2023-11-21T15:58:02.108Z,96426.28
2023-11-21T16:00:31.891Z,96421.81
2023-11-21T16:03:01.957Z,96425.25
2023-11-21T16:05:28.823Z,96428.31
2023-11-21T16:07:55.663Z,96425.31
2023-11-21T16:10:22.574Z,96422.09
2023-11-21T16:12:49.346Z,96417.41
2023-11-21T16:15:16.185Z,96421.75
2023-11-21T16:17:43.117Z,96427.72
2023-11-21T16:20:13.046Z,96436.84
2023-11-21T16:22:39.997Z,96449.19
2023-11-21T16:25:06.828Z,96452.25
2023-11-21T16:27:33.577Z,96443.75
2023-11-21T16:30:00.362Z,96451.00
2023-11-21T16:32:30.213Z,96444.13
2023-11-21T16:34:57.089Z,96455.84
2023-11-21T16:37:26.932Z,96451.00
2023-11-21T16:39:53.697Z,96450.00
2023-11-21T16:42:21.732Z,96454.22
2023-11-21T16:44:52.821Z,96465.53
2023-11-21T16:47:19.670Z,96462.16
2023-11-21T16:49:46.596Z,96458.28
2023-11-21T16:52:13.370Z,96461.13
2023-11-21T16:54:40.162Z,96461.94
2023-11-21T16:57:06.942Z,96460.50
2023-11-21T16:59:33.737Z,96461.94
2023-11-21T17:02:03.663Z,96471.66
2023-11-21T17:04:30.538Z,96479.53
2023-11-21T17:06:57.347Z,96475.69
2023-11-21T17:09:24.181Z,96481.31
2023-11-21T17:11:51.023Z,96490.22
2023-11-21T17:14:20.874Z,96491.81
2023-11-21T17:16:47.744Z,96482.94
2023-11-21T17:19:14.607Z,96498.44
2023-11-21T17:21:41.413Z,96503.31
2023-11-21T17:24:08.205Z,96502.84
2023-11-21T17:26:35.064Z,96510.13
2023-11-21T17:29:02.007Z,96508.53
2023-11-21T17:31:28.831Z,96513.03
2023-11-21T17:33:55.785Z,96508.94
2023-11-21T17:36:22.735Z,96509.38
2023-11-21T17:38:49.706Z,96524.09
2023-11-21T17:41:16.576Z,96519.66
2023-11-21T17:43:43.431Z,96528.53
2023-11-21T17:46:10.297Z,96520.00
2023-11-21T17:48:37.121Z,96519.13
2023-11-21T17:51:03.957Z,96527.22
2023-11-21T17:53:33.800Z,96525.66
2023-11-21T17:56:03.652Z,96532.63
2023-11-21T17:58:30.439Z,96538.09
2023-11-21T18:01:00.364Z,96538.59
2023-11-21T18:03:27.283Z,96541.28
2023-11-21T18:05:55.512Z,96545.09
2023-11-21T18:08:28.407Z,96544.16
2023-11-21T18:10:55.288Z,96538.50
2023-11-21T18:13:22.203Z,96544.50
2023-11-21T18:15:52.287Z,96549.16
2023-11-21T18:18:19.105Z,96554.22
2023-11-21T18:20:45.921Z,96549.94
2023-11-21T18:23:15.844Z,96552.78
2023-11-21T18:25:42.897Z,96561.09
2023-11-21T18:28:12.782Z,96561.19
2023-11-21T18:30:42.767Z,96561.50
2023-11-21T18:33:09.678Z,96562.34
2023-11-21T18:35:36.591Z,96562.28
2023-11-21T18:38:03.517Z,96561.88
2023-11-21T18:40:33.427Z,96560.34
2023-11-21T18:43:03.404Z,96557.97
2023-11-21T18:45:30.371Z,96560.03
2023-11-21T18:47:57.335Z,96568.72
2023-11-21T18:50:27.435Z,96567.97
2023-11-21T18:52:54.470Z,96571.41
2023-11-21T18:55:24.390Z,96574.28
2023-11-21T18:57:54.239Z,96577.81
2023-11-21T19:00:21.083Z,96577.66
2023-11-21T19:02:48.175Z,96586.19
2023-11-21T19:05:15.009Z,96582.31
2023-11-21T19:07:41.674Z,96582.66
2023-11-21T19:10:08.295Z,96584.41
2023-11-21T19:12:36.941Z,96593.72
2023-11-21T19:15:03.928Z,96594.25
2023-11-21T19:17:30.569Z,96590.44
2023-11-21T19:19:57.205Z,96586.84
2023-11-21T19:22:23.910Z,96591.50
2023-11-21T19:24:50.532Z,96598.81
2023-11-21T19:27:17.155Z,96604.75
2023-11-21T19:29:43.778Z,96597.63
2023-11-21T19:32:10.506Z,96613.53
2023-11-21T19:34:37.184Z,96602.13
2023-11-21T19:37:03.845Z,96616.66
2023-11-21T19:39:30.442Z,96620.69
2023-11-21T19:41:57.048Z,96619.69
2023-11-21T19:44:23.656Z,96634.06
2023-11-21T19:46:50.368Z,96627.13
2023-11-21T19:49:17.004Z,96635.38
2023-11-21T19:51:43.646Z,96641.63
2023-11-21T19:54:10.322Z,96644.38
2023-11-21T19:56:44.210Z,96643.72
2023-11-21T19:59:23.744Z,96646.72
2023-11-21T20:01:51.235Z,96642.94
2023-11-21T20:04:20.447Z,96646.53
2023-11-21T20:06:54.536Z,96642.28
2023-11-21T20:18:47.652Z,96667.59
2023-11-21T20:21:14.706Z,96653.09
2023-11-21T20:26:43.564Z,96655.78
2023-11-21T20:29:11.836Z,96657.94
2023-11-21T20:31:43.436Z,96667.28
2023-11-21T20:34:11.506Z,96664.31
2023-11-21T20:42:35.415Z,96670.69
2023-11-21T20:45:16.983Z,96679.38
2023-11-21T20:47:46.186Z,96685.00
2023-11-21T20:50:13.154Z,96687.31
2023-11-21T20:52:53.189Z,96686.19
2023-11-21T20:55:22.348Z,96687.31
2023-11-21T20:57:49.195Z,96685.88
2023-11-21T21:00:16.139Z,96688.84
2023-11-21T21:02:44.622Z,96690.88
2023-11-21T21:05:13.879Z,96694.56
2023-11-21T21:07:41.023Z,96695.34
2023-11-21T21:10:07.728Z,96687.41
2023-11-21T21:12:37.696Z,96690.53
2023-11-21T21:15:04.469Z,96691.06
2023-11-21T21:17:31.220Z,96688.34
2023-11-21T21:19:58.025Z,96696.28
2023-11-21T21:22:24.745Z,96688.88
2023-11-21T21:24:53.946Z,96690.56
2023-11-21T21:27:23.438Z,96685.25
2023-11-21T21:29:50.348Z,96695.50
2023-11-21T21:32:17.256Z,96694.16
2023-11-21T21:34:44.071Z,96694.88
2023-11-21T21:37:10.905Z,96692.72
2023-11-21T21:39:39.805Z,96694.66
2023-11-21T21:42:06.572Z,96703.84
2023-11-21T21:44:42.080Z,96702.44
2023-11-21T21:47:10.124Z,96710.97
2023-11-21T21:49:36.817Z,96709.91
2023-11-21T21:52:04.706Z,96718.34
2023-11-21T21:54:31.506Z,96716.41
2023-11-21T21:56:58.206Z,96707.53
2023-11-21T21:59:24.996Z,96714.19
2023-11-21T22:01:53.685Z,96720.28
2023-11-21T22:04:20.577Z,96716.59
2023-11-21T22:06:47.477Z,96717.53
2023-11-21T22:09:14.290Z,96715.53
2023-11-21T22:11:43.101Z,96720.72
2023-11-21T22:14:09.948Z,96717.25
2023-11-21T22:16:50.762Z,96719.78
2023-11-21T22:19:18.677Z,96726.56
2023-11-21T22:21:45.386Z,96720.19
2023-11-21T22:24:12.138Z,96733.63
2023-11-21T22:26:41.225Z,96732.00
2023-11-21T22:29:19.421Z,96745.53
2023-11-21T22:31:47.706Z,96747.44
2023-11-21T22:34:14.621Z,96731.22
2023-11-21T22:36:42.646Z,96744.38
2023-11-21T22:39:21.257Z,96735.66
2023-11-21T22:56:20.005Z,96742.22
2023-11-21T23:05:06.763Z,96736.28
2023-11-21T23:07:41.852Z,96736.94
2023-11-21T23:10:14.564Z,96730.47
2023-11-21T23:12:41.388Z,96734.19
2023-11-21T23:15:14.011Z,96732.06
2023-11-21T23:17:45.183Z,96738.41
2023-11-21T23:21:18.965Z,96742.41
2023-11-21T23:28:40.113Z,96742.06
2023-11-21T23:36:42.732Z,96739.22
2023-11-21T23:39:27.439Z,96741.97
2023-11-21T23:44:41.715Z,96735.38
2023-11-21T23:47:19.195Z,96734.34
2023-11-21T23:49:56.006Z,96739.59
2023-11-21T23:52:23.959Z,96735.13
2023-11-21T23:57:48.874Z,96742.97
